createdAt,value
2023-04-27T00:02:20.173Z,6.36
2023-04-27T00:04:48.109Z,6.43
2023-04-27T00:07:15.838Z,6.37
2023-04-27T00:09:43.358Z,6.33
2023-04-27T00:12:10.854Z,6.39
2023-04-27T00:14:38.259Z,6.33
2023-04-27T00:17:05.637Z,6.19
2023-04-27T00:19:33.687Z,6.13
2023-04-27T00:22:01.167Z,5.89
2023-04-27T00:24:28.642Z,6.00
2023-04-27T00:26:56.532Z,6.13
2023-04-27T00:29:23.955Z,6.13
2023-04-27T00:31:51.371Z,6.07
2023-04-27T00:34:18.776Z,6.05
2023-04-27T00:36:46.170Z,5.99
2023-04-27T00:39:13.750Z,6.02
2023-04-27T00:41:41.321Z,6.13
2023-04-27T00:44:08.753Z,6.20
2023-04-27T00:46:36.285Z,6.11
2023-04-27T00:49:03.819Z,6.09
2023-04-27T00:51:32.074Z,6.11
2023-04-27T00:53:59.722Z,6.12
2023-04-27T00:56:27.193Z,6.18
2023-04-27T00:58:54.563Z,6.19
2023-04-27T01:01:22.057Z,6.20
2023-04-27T01:03:50.145Z,6.22
2023-04-27T01:06:17.711Z,6.16
2023-04-27T01:08:45.630Z,6.23
2023-04-27T01:11:13.451Z,6.13
2023-04-27T01:13:40.916Z,6.13
2023-04-27T01:16:08.373Z,6.20
2023-04-27T01:18:35.793Z,6.18
2023-04-27T01:21:03.269Z,6.16
2023-04-27T01:23:31.066Z,6.23
2023-04-27T01:25:58.428Z,6.20
2023-04-27T01:28:25.899Z,6.12
2023-04-27T01:30:53.346Z,6.00
2023-04-27T01:33:21.562Z,6.06
2023-04-27T01:35:49.574Z,6.12
2023-04-27T01:38:17.808Z,6.04
2023-04-27T01:40:45.218Z,5.96
2023-04-27T01:43:12.611Z,6.18
2023-04-27T01:45:39.961Z,6.20
2023-04-27T01:48:07.560Z,6.19
2023-04-27T01:50:34.984Z,6.13
2023-04-27T01:53:03.391Z,6.05
2023-04-27T01:55:31.091Z,6.10
2023-04-27T01:57:58.506Z,6.05
2023-04-27T02:00:26.025Z,6.02
2023-04-27T02:02:57.242Z,5.99
2023-04-27T02:05:25.451Z,5.95
2023-04-27T02:07:52.895Z,5.74
2023-04-27T02:10:22.215Z,5.74
2023-04-27T02:12:49.872Z,5.68
2023-04-27T02:15:17.439Z,5.50
2023-04-27T02:17:45.482Z,5.55
2023-04-27T02:20:12.879Z,5.56
2023-04-27T02:22:44.525Z,5.48
2023-04-27T02:25:15.490Z,5.44
2023-04-27T02:27:43.241Z,5.38
2023-04-27T02:30:12.349Z,5.42
2023-04-27T02:32:41.274Z,5.26
2023-04-27T02:35:08.938Z,5.33
2023-04-27T02:37:36.751Z,5.30
2023-04-27T02:40:04.548Z,5.28
2023-04-27T02:42:33.039Z,5.24
2023-04-27T02:45:00.585Z,5.32
2023-04-27T02:47:28.024Z,5.23
2023-04-27T02:49:55.482Z,5.46
2023-04-27T02:52:22.956Z,5.48
2023-04-27T02:54:50.417Z,5.45
2023-04-27T02:57:17.909Z,5.37
2023-04-27T02:59:45.562Z,5.38
2023-04-27T03:02:12.985Z,5.43
2023-04-27T03:04:40.453Z,5.50
2023-04-27T03:07:07.953Z,5.51
2023-04-27T03:09:35.335Z,5.56
2023-04-27T03:12:02.870Z,5.58
2023-04-27T03:14:30.425Z,5.50
2023-04-27T03:16:58.099Z,5.45
2023-04-27T03:19:25.532Z,5.40
2023-04-27T03:21:52.962Z,5.46
2023-04-27T03:24:21.702Z,5.49
2023-04-27T03:26:49.076Z,5.51
2023-04-27T03:29:16.460Z,5.43
2023-04-27T03:31:43.944Z,5.43
2023-04-27T03:34:11.382Z,5.47
2023-04-27T03:36:38.788Z,5.38
2023-04-27T03:39:06.220Z,5.41
2023-04-27T03:41:33.609Z,5.26
2023-04-27T03:44:01.043Z,5.32
2023-04-27T03:46:28.441Z,5.24
2023-04-27T03:48:55.909Z,5.21
2023-04-27T03:51:23.327Z,5.17
2023-04-27T03:53:50.720Z,5.20
2023-04-27T03:56:18.180Z,5.22
2023-04-27T03:58:46.811Z,5.13
2023-04-27T04:01:14.815Z,5.13
2023-04-27T04:03:42.410Z,5.11
2023-04-27T04:06:10.062Z,5.14
2023-04-27T04:08:37.546Z,5.09
2023-04-27T04:11:05.052Z,5.25
2023-04-27T04:13:32.491Z,5.37
2023-04-27T04:16:03.032Z,5.33
2023-04-27T04:18:30.485Z,5.22
2023-04-27T04:20:57.948Z,5.30
2023-04-27T04:23:25.943Z,5.40
2023-04-27T04:25:54.372Z,5.46
2023-04-27T04:28:22.457Z,5.41
2023-04-27T04:30:51.035Z,5.50
2023-04-27T04:33:18.527Z,5.56
2023-04-27T04:35:46.145Z,5.58
2023-04-27T04:38:13.506Z,5.55
2023-04-27T04:40:42.342Z,5.52
2023-04-27T04:43:11.132Z,5.56
2023-04-27T04:45:38.641Z,5.59
2023-04-27T04:48:06.198Z,5.60
2023-04-27T04:50:33.692Z,5.45
2023-04-27T04:53:01.149Z,5.72
2023-04-27T04:55:28.830Z,5.69
2023-04-27T04:57:56.209Z,5.59
2023-04-27T05:00:23.655Z,5.67
2023-04-27T05:02:51.235Z,5.66
2023-04-27T05:05:18.902Z,5.73
2023-04-27T05:07:46.367Z,5.78
2023-04-27T05:10:13.898Z,5.91
2023-04-27T05:12:41.328Z,6.03
2023-04-27T05:15:09.019Z,6.17
2023-04-27T05:17:36.484Z,6.25
2023-04-27T05:20:04.985Z,6.29
2023-04-27T05:22:32.452Z,6.32
2023-04-27T05:24:59.893Z,6.44
2023-04-27T05:27:27.298Z,6.50
2023-04-27T05:29:54.714Z,6.66
2023-04-27T05:32:22.461Z,6.77
2023-04-27T05:34:49.843Z,6.82
2023-04-27T05:37:17.233Z,6.93
2023-04-27T05:39:44.645Z,6.95
2023-04-27T05:42:12.073Z,6.96
2023-04-27T05:44:39.476Z,6.98
2023-04-27T05:47:06.920Z,7.11
2023-04-27T05:49:34.318Z,7.28
2023-04-27T05:52:02.619Z,7.28
2023-04-27T05:54:29.983Z,7.07
2023-04-27T05:56:57.443Z,7.24
2023-04-27T05:59:24.889Z,7.29
2023-04-27T06:01:52.811Z,7.38
2023-04-27T06:04:20.369Z,7.54
2023-04-27T06:06:47.904Z,7.43
2023-04-27T06:09:15.806Z,7.45
2023-04-27T06:11:43.612Z,7.61
2023-04-27T06:14:11.027Z,7.94
2023-04-27T06:16:38.464Z,8.11
2023-04-27T06:19:05.907Z,8.06
2023-04-27T06:21:33.828Z,8.16
2023-04-27T06:24:01.375Z,7.95
2023-04-27T06:26:29.120Z,8.18
2023-04-27T06:28:56.572Z,8.28
2023-04-27T06:31:24.076Z,8.37
2023-04-27T06:33:51.642Z,8.68
2023-04-27T06:36:19.521Z,8.70
2023-04-27T06:38:46.995Z,8.94
2023-04-27T06:41:14.637Z,8.90
2023-04-27T06:43:42.110Z,9.07
2023-04-27T06:46:09.516Z,8.93
2023-04-27T06:48:37.024Z,9.08
2023-04-27T06:51:04.474Z,8.89
2023-04-27T06:53:32.085Z,8.99
2023-04-27T06:55:59.717Z,9.29
2023-04-27T06:58:27.246Z,9.50
2023-04-27T07:00:54.792Z,9.41
2023-04-27T07:03:22.676Z,9.74
2023-04-27T07:05:51.541Z,10.13
2023-04-27T07:08:18.948Z,9.68
2023-04-27T07:10:46.499Z,9.99
2023-04-27T07:13:14.492Z,10.30
2023-04-27T07:15:41.972Z,10.27
2023-04-27T07:18:09.751Z,10.56
2023-04-27T07:20:38.405Z,10.23
2023-04-27T07:23:06.235Z,10.76
2023-04-27T07:25:34.007Z,10.64
2023-04-27T07:28:01.484Z,10.40
2023-04-27T07:30:30.748Z,10.73
2023-04-27T07:32:58.779Z,10.81
2023-04-27T07:35:26.504Z,11.04
2023-04-27T07:37:53.899Z,10.90
2023-04-27T07:40:24.003Z,10.98
2023-04-27T07:42:51.514Z,10.94
2023-04-27T07:45:18.931Z,11.04
2023-04-27T07:47:46.493Z,11.23
2023-04-27T07:50:16.427Z,11.04
2023-04-27T07:52:43.932Z,11.31
2023-04-27T07:55:12.133Z,11.62
2023-04-27T07:57:39.717Z,11.86
2023-04-27T08:00:09.814Z,11.72
2023-04-27T08:02:37.565Z,11.98
2023-04-27T08:05:05.434Z,11.81
2023-04-27T08:07:37.159Z,11.94
2023-04-27T08:10:09.615Z,11.99
2023-04-27T08:12:37.036Z,11.98
2023-04-27T08:15:04.560Z,12.05
2023-04-27T08:17:31.970Z,12.21
2023-04-27T08:19:59.471Z,12.06
2023-04-27T08:22:26.920Z,12.33
2023-04-27T08:24:54.261Z,12.57
2023-04-27T08:27:21.611Z,12.80
2023-04-27T08:29:49.626Z,12.88
2023-04-27T08:32:17.068Z,12.63
2023-04-27T08:34:46.537Z,12.87
2023-04-27T08:37:14.303Z,13.11
2023-04-27T08:39:41.774Z,12.85
2023-04-27T08:42:12.744Z,13.51
2023-04-27T08:44:43.756Z,13.12
2023-04-27T08:47:11.608Z,12.85
2023-04-27T08:49:41.513Z,13.30
2023-04-27T08:52:15.615Z,13.20
2023-04-27T08:54:43.514Z,13.30
2023-04-27T08:57:11.951Z,13.51
2023-04-27T08:59:39.728Z,13.35
2023-04-27T09:02:07.560Z,13.49
2023-04-27T09:04:39.439Z,14.06
2023-04-27T09:07:13.026Z,14.57
2023-04-27T09:09:40.477Z,14.47
2023-04-27T09:12:17.951Z,14.76
2023-04-27T09:14:56.901Z,14.09
2023-04-27T09:17:28.203Z,14.46
2023-04-27T09:20:10.298Z,14.97
2023-04-27T09:22:44.814Z,15.22
2023-04-27T09:25:14.821Z,14.49
2023-04-27T09:27:45.042Z,14.80
2023-04-27T09:30:15.928Z,14.73
2023-04-27T09:32:56.048Z,14.76
2023-04-27T09:35:25.697Z,14.14
2023-04-27T09:37:53.906Z,15.21
2023-04-27T09:40:23.638Z,15.41
2023-04-27T09:42:52.394Z,15.27
2023-04-27T09:45:20.505Z,15.01
2023-04-27T09:47:48.216Z,14.93
2023-04-27T09:50:15.792Z,15.40
2023-04-27T09:52:43.377Z,14.95
2023-04-27T09:55:12.124Z,15.51
2023-04-27T09:57:58.129Z,16.25
2023-04-27T10:00:37.524Z,16.21
2023-04-27T10:03:05.132Z,15.62
2023-04-27T10:06:02.137Z,15.40
2023-04-27T10:08:30.435Z,16.01
2023-04-27T10:10:57.835Z,16.29
2023-04-27T10:13:26.470Z,16.32
2023-04-27T10:15:54.328Z,16.85
2023-04-27T10:18:29.839Z,16.86
2023-04-27T10:20:57.481Z,16.31
2023-04-27T10:23:25.996Z,17.62
2023-04-27T10:25:54.743Z,17.14
2023-04-27T10:28:22.330Z,16.46
2023-04-27T10:30:50.258Z,16.67
2023-04-27T10:33:18.893Z,17.47
2023-04-27T10:35:54.465Z,17.68
2023-04-27T10:38:23.576Z,16.88
2023-04-27T10:41:01.882Z,18.33
2023-04-27T10:43:30.292Z,17.85
2023-04-27T10:46:13.972Z,17.79
2023-04-27T10:48:42.373Z,17.54
2023-04-27T10:51:10.049Z,16.42
2023-04-27T10:53:38.304Z,17.64
2023-04-27T10:56:07.065Z,17.25
2023-04-27T11:01:09.530Z,17.95
2023-04-27T11:03:37.577Z,17.37
2023-04-27T11:06:06.222Z,16.58
2023-04-27T11:08:34.176Z,17.14
2023-04-27T11:11:01.829Z,17.64
2023-04-27T11:13:29.463Z,17.28
2023-04-27T11:15:58.221Z,17.24
2023-04-27T11:18:31.593Z,18.11
2023-04-27T11:21:09.434Z,18.12
2023-04-27T11:23:38.410Z,18.08
2023-04-27T11:26:15.326Z,18.45
2023-04-27T11:28:43.519Z,18.17
2023-04-27T11:31:11.612Z,18.26
2023-04-27T11:33:40.197Z,18.24
2023-04-27T11:36:17.818Z,17.77
2023-04-27T11:38:45.375Z,18.26
2023-04-27T11:41:13.152Z,18.26
2023-04-27T11:43:46.048Z,18.02
2023-04-27T11:46:13.519Z,19.03
2023-04-27T11:48:41.276Z,18.53
2023-04-27T11:51:11.324Z,19.00
2023-04-27T11:53:42.878Z,18.39
2023-04-27T11:56:11.715Z,17.17
2023-04-27T11:58:39.873Z,18.30
2023-04-27T12:01:08.019Z,18.34
2023-04-27T12:03:37.804Z,19.20
2023-04-27T12:06:21.521Z,19.10
2023-04-27T12:08:53.118Z,19.78
2023-04-27T12:11:20.775Z,19.70
2023-04-27T12:13:48.302Z,19.74
2023-04-27T12:16:15.832Z,19.12
2023-04-27T12:18:43.301Z,19.71
2023-04-27T12:21:10.870Z,19.86
2023-04-27T12:23:38.305Z,19.78
2023-04-27T12:26:06.296Z,20.27
2023-04-27T12:28:33.786Z,20.46
2023-04-27T12:31:03.924Z,20.39
2023-04-27T12:33:31.700Z,19.63
2023-04-27T12:35:59.193Z,19.52
2023-04-27T12:38:26.823Z,18.97
2023-04-27T12:40:54.227Z,20.05
2023-04-27T12:43:21.753Z,19.26
2023-04-27T12:45:49.188Z,19.03
2023-04-27T12:48:17.667Z,19.53
2023-04-27T12:50:45.441Z,19.73
2023-04-27T12:53:12.963Z,20.27
2023-04-27T12:55:40.441Z,19.69
2023-04-27T12:58:07.987Z,20.57
2023-04-27T13:00:35.592Z,19.97
2023-04-27T13:03:03.228Z,18.75
2023-04-27T13:05:31.991Z,19.20
2023-04-27T13:07:59.923Z,18.83
2023-04-27T13:10:27.425Z,18.54
2023-04-27T13:12:55.448Z,19.62
2023-04-27T13:15:22.891Z,20.20
2023-04-27T13:17:52.998Z,20.90
2023-04-27T13:20:20.573Z,20.41
2023-04-27T13:22:48.206Z,20.04
2023-04-27T13:25:16.553Z,20.31
2023-04-27T13:27:44.219Z,21.08
2023-04-27T13:30:11.766Z,20.23
2023-04-27T13:32:39.231Z,19.80
2023-04-27T13:35:07.760Z,19.67
2023-04-27T13:37:35.290Z,20.00
2023-04-27T13:40:02.751Z,19.68
2023-04-27T13:42:30.181Z,19.01
2023-04-27T13:44:57.619Z,18.19
2023-04-27T13:47:25.088Z,18.81
2023-04-27T13:49:52.544Z,18.61
2023-04-27T13:52:20.071Z,19.16
2023-04-27T13:54:47.564Z,19.96
2023-04-27T13:57:14.951Z,20.22
2023-04-27T13:59:42.439Z,19.42
2023-04-27T14:02:09.988Z,20.00
2023-04-27T14:04:37.452Z,19.21
2023-04-27T14:07:04.914Z,19.21
2023-04-27T14:09:32.267Z,18.79
2023-04-27T14:12:00.310Z,18.54
2023-04-27T14:14:27.783Z,18.35
2023-04-27T14:16:56.774Z,18.26
2023-04-27T14:19:24.261Z,18.32
2023-04-27T14:21:51.767Z,18.14
2023-04-27T14:24:19.207Z,17.87
2023-04-27T14:26:47.590Z,18.26
2023-04-27T14:29:15.326Z,18.22
2023-04-27T14:31:43.163Z,18.00
2023-04-27T14:34:10.867Z,17.76
2023-04-27T14:36:38.663Z,18.01
2023-04-27T14:39:07.092Z,17.73
2023-04-27T14:41:35.499Z,18.31
2023-04-27T14:44:03.221Z,17.84
2023-04-27T14:46:30.614Z,17.97
2023-04-27T14:48:58.001Z,17.77
2023-04-27T14:51:25.380Z,17.48
2023-04-27T14:53:52.785Z,17.16
2023-04-27T14:56:20.178Z,17.28
2023-04-27T14:58:47.664Z,17.53
2023-04-27T15:01:15.190Z,17.63
2023-04-27T15:03:42.861Z,18.22
2023-04-27T15:06:10.397Z,17.64
2023-04-27T15:08:37.741Z,17.97
2023-04-27T15:11:05.163Z,17.12
2023-04-27T15:13:32.583Z,17.42
2023-04-27T15:16:00.949Z,17.01
2023-04-27T15:18:28.471Z,17.34
2023-04-27T15:20:56.575Z,17.40
2023-04-27T15:23:24.524Z,17.41
2023-04-27T15:25:52.982Z,17.25
2023-04-27T15:28:20.472Z,17.44
2023-04-27T15:30:48.054Z,17.19
2023-04-27T15:33:16.511Z,17.31
2023-04-27T15:35:44.701Z,16.92
2023-04-27T15:38:13.851Z,16.85
2023-04-27T15:40:41.531Z,16.52
2023-04-27T15:43:08.910Z,16.90
2023-04-27T15:45:36.375Z,16.03
2023-04-27T15:48:03.844Z,16.56
2023-04-27T15:50:31.426Z,16.71
2023-04-27T15:52:58.854Z,16.67
2023-04-27T15:55:26.334Z,16.89
2023-04-27T15:57:54.417Z,16.60
2023-04-27T16:00:22.464Z,16.82
2023-04-27T16:02:50.440Z,16.97
2023-04-27T16:05:18.039Z,17.10
2023-04-27T16:07:45.970Z,16.77
2023-04-27T16:10:13.800Z,16.41
2023-04-27T16:12:41.550Z,16.25
2023-04-27T16:15:11.474Z,16.49
2023-04-27T16:17:40.118Z,16.38
2023-04-27T16:20:07.869Z,16.45
2023-04-27T16:22:36.391Z,16.18
2023-04-27T16:25:06.698Z,16.38
2023-04-27T16:27:34.362Z,16.46
2023-04-27T16:30:02.612Z,16.67
2023-04-27T16:32:31.049Z,16.60
2023-04-27T16:35:00.427Z,16.68
2023-04-27T16:37:27.838Z,16.22
2023-04-27T16:39:59.338Z,16.48
2023-04-27T16:42:27.009Z,16.26
2023-04-27T16:44:54.671Z,15.77
2023-04-27T16:47:22.698Z,16.07
2023-04-27T16:49:51.527Z,15.42
2023-04-27T16:52:19.996Z,15.81
2023-04-27T16:54:47.378Z,15.70
2023-04-27T16:57:14.739Z,16.09
2023-04-27T16:59:42.483Z,16.33
2023-04-27T17:02:22.990Z,16.55
2023-04-27T17:04:51.873Z,15.22
2023-04-27T17:07:19.558Z,15.18
2023-04-27T17:09:46.934Z,15.91
2023-04-27T17:12:15.318Z,15.78
2023-04-27T17:14:42.898Z,16.01
2023-04-27T17:17:11.554Z,15.67
2023-04-27T17:19:39.953Z,15.83
2023-04-27T17:22:08.510Z,15.66
2023-04-27T17:24:35.979Z,15.65
2023-04-27T17:27:05.097Z,15.97
2023-04-27T17:29:32.616Z,15.77
2023-04-27T17:32:00.144Z,15.58
2023-04-27T17:34:27.578Z,15.67
2023-04-27T17:36:54.934Z,15.62
2023-04-27T17:39:25.121Z,15.47
2023-04-27T17:41:52.750Z,15.49
2023-04-27T17:44:20.182Z,15.43
2023-04-27T17:46:48.618Z,15.46
2023-04-27T17:49:17.053Z,15.45
2023-04-27T17:51:45.048Z,15.25
2023-04-27T17:54:12.486Z,15.16
2023-04-27T17:56:40.064Z,14.92
2023-04-27T17:59:08.413Z,14.94
2023-04-27T18:01:35.987Z,14.65
2023-04-27T18:04:05.669Z,14.63
2023-04-27T18:06:33.841Z,14.51
2023-04-27T18:09:01.279Z,14.56
2023-04-27T18:11:29.143Z,14.68
2023-04-27T18:13:57.952Z,14.29
2023-04-27T18:16:25.740Z,14.77
2023-04-27T18:18:53.335Z,14.84
2023-04-27T18:21:20.840Z,14.72
2023-04-27T18:23:48.275Z,14.73
2023-04-27T18:26:16.551Z,14.35
2023-04-27T18:28:44.213Z,14.57
2023-04-27T18:31:17.975Z,14.31
2023-04-27T18:33:48.146Z,14.35
2023-04-27T18:36:15.654Z,14.42
2023-04-27T18:38:43.095Z,14.30
2023-04-27T18:41:10.709Z,14.14
2023-04-27T18:43:38.207Z,14.25
2023-04-27T18:46:05.761Z,14.03
2023-04-27T18:48:33.335Z,14.07
2023-04-27T18:51:00.725Z,14.15
2023-04-27T18:53:28.539Z,14.20
2023-04-27T18:55:56.414Z,13.87
2023-04-27T18:58:24.043Z,14.03
2023-04-27T19:00:51.522Z,14.09
2023-04-27T19:03:19.339Z,13.90
2023-04-27T19:05:47.047Z,13.96
2023-04-27T19:08:14.453Z,13.79
2023-04-27T19:10:42.154Z,14.12
2023-04-27T19:13:10.066Z,13.80
2023-04-27T19:15:37.566Z,13.61
2023-04-27T19:18:10.488Z,13.89
2023-04-27T19:20:39.573Z,13.69
2023-04-27T19:23:08.022Z,13.66
2023-04-27T19:25:35.686Z,13.47
2023-04-27T19:28:03.191Z,13.77
2023-04-27T19:30:31.105Z,13.25
2023-04-27T19:32:58.680Z,13.49
2023-04-27T19:35:27.397Z,13.67
2023-04-27T19:37:54.853Z,13.60
2023-04-27T19:40:22.351Z,13.71
2023-04-27T19:42:49.789Z,13.74
2023-04-27T19:45:18.022Z,13.94
2023-04-27T19:47:45.943Z,13.74
2023-04-27T19:50:13.666Z,14.00
2023-04-27T19:52:41.355Z,13.75
2023-04-27T19:55:08.891Z,13.60
2023-04-27T19:57:36.425Z,13.69
2023-04-27T20:00:05.180Z,13.30
2023-04-27T20:02:33.235Z,13.30
2023-04-27T20:05:01.876Z,13.00
2023-04-27T20:07:30.148Z,12.95
2023-04-27T20:09:57.809Z,13.17
2023-04-27T20:12:47.412Z,13.32
2023-04-27T20:15:14.192Z,13.08
2023-04-27T20:17:42.233Z,13.35
2023-04-27T20:20:10.538Z,13.37
2023-04-27T20:22:38.265Z,13.12
2023-04-27T20:25:07.828Z,13.57
2023-04-27T20:27:35.781Z,13.50
2023-04-27T20:30:03.616Z,13.22
2023-04-27T20:32:31.079Z,13.10
2023-04-27T20:35:00.127Z,13.14
2023-04-27T20:37:29.013Z,13.21
2023-04-27T20:39:56.513Z,12.95
2023-04-27T20:42:24.516Z,13.33
2023-04-27T20:44:54.794Z,13.24
2023-04-27T20:47:22.544Z,13.19
2023-04-27T20:49:50.084Z,12.98
2023-04-27T20:52:17.703Z,12.81
2023-04-27T20:54:45.285Z,12.74
2023-04-27T20:57:14.245Z,12.62
2023-04-27T20:59:41.972Z,12.94
2023-04-27T21:02:09.630Z,12.90
2023-04-27T21:04:37.235Z,12.80
2023-04-27T21:07:04.770Z,12.92
2023-04-27T21:09:32.356Z,12.83
2023-04-27T21:12:00.022Z,12.81
2023-04-27T21:14:27.504Z,12.68
2023-04-27T21:16:55.069Z,12.66
2023-04-27T21:19:22.829Z,12.80
2023-04-27T21:21:50.361Z,12.64
2023-04-27T21:24:19.244Z,12.68
2023-04-27T21:26:46.824Z,12.70
2023-04-27T21:29:14.234Z,12.74
2023-04-27T21:31:41.571Z,12.77
2023-04-27T21:34:09.062Z,12.73
2023-04-27T21:36:37.173Z,12.58
2023-04-27T21:39:05.781Z,12.51
2023-04-27T21:41:35.176Z,12.60
2023-04-27T21:44:02.872Z,12.57
2023-04-27T21:46:30.283Z,12.38
2023-04-27T21:48:57.770Z,12.36
2023-04-27T21:51:25.203Z,12.58
2023-04-27T21:53:52.699Z,12.53
2023-04-27T21:56:20.163Z,12.74
2023-04-27T21:58:47.702Z,12.66
2023-04-27T22:01:15.275Z,12.49
2023-04-27T22:03:42.877Z,12.44
2023-04-27T22:06:10.716Z,12.36
2023-04-27T22:08:38.173Z,12.29
2023-04-27T22:11:05.650Z,12.22
2023-04-27T22:13:33.035Z,12.14
2023-04-27T22:16:00.460Z,12.42
2023-04-27T22:18:27.925Z,12.20
2023-04-27T22:20:55.496Z,12.10
2023-04-27T22:23:22.902Z,12.05
2023-04-27T22:25:50.313Z,12.43
2023-04-27T22:28:17.767Z,12.27
2023-04-27T22:30:45.199Z,12.16
2023-04-27T22:33:12.756Z,12.55
2023-04-27T22:35:40.402Z,12.18
2023-04-27T22:38:08.041Z,12.22
2023-04-27T22:40:35.980Z,12.40
2023-04-27T22:43:03.723Z,12.25
2023-04-27T22:45:31.860Z,12.32
2023-04-27T22:47:59.472Z,12.10
2023-04-27T22:50:27.518Z,12.14
2023-04-27T22:52:54.933Z,12.03
2023-04-27T22:55:22.322Z,12.09
2023-04-27T22:57:49.969Z,11.99
2023-04-27T23:00:17.496Z,12.14
2023-04-27T23:02:45.090Z,11.90
2023-04-27T23:05:13.344Z,11.84
2023-04-27T23:07:42.832Z,12.23
2023-04-27T23:10:10.895Z,11.98
2023-04-27T23:12:38.744Z,11.99
2023-04-27T23:15:06.464Z,12.13
2023-04-27T23:17:34.011Z,12.08
2023-04-27T23:20:02.059Z,12.04
2023-04-27T23:22:29.560Z,12.06
2023-04-27T23:24:56.987Z,11.85
2023-04-27T23:27:25.095Z,11.95
2023-04-27T23:29:52.987Z,11.82
2023-04-27T23:32:20.521Z,11.95
2023-04-27T23:34:48.127Z,12.07
2023-04-27T23:37:15.527Z,11.94
2023-04-27T23:39:42.872Z,11.88
2023-04-27T23:42:10.235Z,11.61
2023-04-27T23:44:37.670Z,11.75
2023-04-27T23:47:05.279Z,11.71
2023-04-27T23:49:32.713Z,11.68
2023-04-27T23:52:00.171Z,11.62
2023-04-27T23:54:31.029Z,11.29
2023-04-27T23:56:58.783Z,11.43
2023-04-27T23:59:26.193Z,11.47
